Webcams

Webcam1&2         Webcam1 (Zeitraffer 2 Std.)        Webcam2 (Zeitraffer 2 Std.)

Webcam2 - Zeitraffer (die letzten zwei Stunden, Intervall: 10min)
cam2--20190424_041959M
cam2--20190424_042959M
cam2--20190424_043959M
cam2--20190424_044959M
cam2--20190424_045958M
cam2--20190424_050958M
cam2--20190424_051958M
cam2--20190424_052957M
cam2--20190424_053959M
cam2--20190424_054958M
cam2--20190424_055958M
cam2--20190424_060959M
cam2--20190424_061959M
01/13 
start stop bwd fwd

Webcam2 - Aktuell

Lokale Serverzeit 06:20 | 24.04.2019
Webcam-Lageplan

Flugwetter

[source: ADDS]
METAR
LOWL 240350Z 07009KT CAVOK 10/07 Q1005 NOSIG =
TAF LOWL 232315Z 2400/2424 09010KT 9999 FEW040 SCT160 TX25/2414Z TN10/2403Z BECMG 2410/2413 12005KT CAVOK
TAF
TAF LOWL 232315Z 2400/2424 09010KT 9999 FEW040 SCT160 TX25/2414Z TN10/2403Z BECMG 2410/2413 12005KT CAVOK =